sensor_id;sensor_type;location;lat;lon;timestamp;P1;durP1;ratioP1;P2;durP2;ratioP2
82938;SDS011;72714;52.744;4.900;2023-10-19T00:00:34;13.70;;;10.25;;
82938;SDS011;72714;52.744;4.900;2023-10-19T00:03:10;12.05;;;9.88;;
82938;SDS011;72714;52.744;4.900;2023-10-19T00:05:36;12.95;;;9.73;;
82938;SDS011;72714;52.744;4.900;2023-10-19T00:08:03;12.88;;;9.90;;
82938;SDS011;72714;52.744;4.900;2023-10-19T00:10:46;13.05;;;10.23;;
82938;SDS011;72714;52.744;4.900;2023-10-19T00:13:14;11.43;;;9.10;;
82938;SDS011;72714;52.744;4.900;2023-10-19T00:15:41;11.87;;;9.20;;
82938;SDS011;72714;52.744;4.900;2023-10-19T00:18:16;11.35;;;8.85;;
82938;SDS011;72714;52.744;4.900;2023-10-19T00:20:43;11.70;;;8.77;;
82938;SDS011;72714;52.744;4.900;2023-10-19T00:23:20;12.05;;;8.77;;
82938;SDS011;72714;52.744;4.900;2023-10-19T00:25:58;11.05;;;8.38;;
82938;SDS011;72714;52.744;4.900;2023-10-19T00:28:24;10.50;;;8.00;;
82938;SDS011;72714;52.744;4.900;2023-10-19T00:30:52;10.32;;;8.32;;
82938;SDS011;72714;52.744;4.900;2023-10-19T00:33:18;9.85;;;7.97;;
82938;SDS011;72714;52.744;4.900;2023-10-19T00:35:51;10.50;;;8.27;;
82938;SDS011;72714;52.744;4.900;2023-10-19T00:38:25;10.68;;;8.95;;
82938;SDS011;72714;52.744;4.900;2023-10-19T00:41:00;10.15;;;7.85;;
82938;SDS011;72714;52.744;4.900;2023-10-19T00:43:36;12.32;;;9.15;;
82938;SDS011;72714;52.744;4.900;2023-10-19T00:46:12;10.80;;;8.18;;
82938;SDS011;72714;52.744;4.900;2023-10-19T00:48:49;10.27;;;8.13;;
82938;SDS011;72714;52.744;4.900;2023-10-19T00:51:22;11.93;;;8.48;;
82938;SDS011;72714;52.744;4.900;2023-10-19T00:54:02;11.32;;;8.32;;
82938;SDS011;72714;52.744;4.900;2023-10-19T00:56:40;9.82;;;7.80;;
82938;SDS011;72714;52.744;4.900;2023-10-19T00:59:11;10.03;;;8.03;;
82938;SDS011;72714;52.744;4.900;2023-10-19T01:01:40;9.00;;;7.47;;
82938;SDS011;72714;52.744;4.900;2023-10-19T01:04:11;10.23;;;8.02;;
82938;SDS011;72714;52.744;4.900;2023-10-19T01:06:41;9.80;;;7.45;;
82938;SDS011;72714;52.744;4.900;2023-10-19T01:09:12;9.75;;;7.95;;
82938;SDS011;72714;52.744;4.900;2023-10-19T01:11:43;9.70;;;7.85;;
82938;SDS011;72714;52.744;4.900;2023-10-19T01:14:21;9.38;;;7.38;;
82938;SDS011;72714;52.744;4.900;2023-10-19T01:16:47;9.10;;;7.32;;
82938;SDS011;72714;52.744;4.900;2023-10-19T01:19:15;9.63;;;7.53;;
82938;SDS011;72714;52.744;4.900;2023-10-19T01:21:43;9.73;;;7.53;;
82938;SDS011;72714;52.744;4.900;2023-10-19T01:24:12;9.38;;;7.40;;
82938;SDS011;72714;52.744;4.900;2023-10-19T01:26:42;9.45;;;6.70;;
82938;SDS011;72714;52.744;4.900;2023-10-19T01:29:07;8.63;;;7.10;;
82938;SDS011;72714;52.744;4.900;2023-10-19T01:31:41;9.13;;;7.30;;
82938;SDS011;72714;52.744;4.900;2023-10-19T01:34:30;8.88;;;7.60;;
82938;SDS011;72714;52.744;4.900;2023-10-19T01:36:55;9.73;;;7.17;;
82938;SDS011;72714;52.744;4.900;2023-10-19T01:39:22;9.07;;;7.40;;
82938;SDS011;72714;52.744;4.900;2023-10-19T01:41:48;8.97;;;7.37;;
82938;SDS011;72714;52.744;4.900;2023-10-19T01:44:15;9.98;;;8.07;;
82938;SDS011;72714;52.744;4.900;2023-10-19T01:46:41;9.83;;;7.87;;
82938;SDS011;72714;52.744;4.900;2023-10-19T01:49:09;10.20;;;8.25;;
82938;SDS011;72714;52.744;4.900;2023-10-19T01:51:35;10.02;;;7.68;;
82938;SDS011;72714;52.744;4.900;2023-10-19T01:54:07;9.85;;;7.95;;
82938;SDS011;72714;52.744;4.900;2023-10-19T01:56:33;9.20;;;7.20;;
82938;SDS011;72714;52.744;4.900;2023-10-19T01:59:01;9.77;;;8.10;;
82938;SDS011;72714;52.744;4.900;2023-10-19T02:01:29;10.47;;;7.77;;
82938;SDS011;72714;52.744;4.900;2023-10-19T02:04:00;8.88;;;7.45;;
82938;SDS011;72714;52.744;4.900;2023-10-19T02:06:32;8.88;;;7.38;;
82938;SDS011;72714;52.744;4.900;2023-10-19T02:08:59;8.13;;;6.82;;
82938;SDS011;72714;52.744;4.900;2023-10-19T02:11:34;9.67;;;7.50;;
82938;SDS011;72714;52.744;4.900;2023-10-19T02:14:03;8.63;;;7.35;;
82938;SDS011;72714;52.744;4.900;2023-10-19T02:16:30;9.05;;;7.47;;
82938;SDS011;72714;52.744;4.900;2023-10-19T02:18:56;8.80;;;7.30;;
82938;SDS011;72714;52.744;4.900;2023-10-19T02:21:22;7.83;;;7.00;;
82938;SDS011;72714;52.744;4.900;2023-10-19T02:23:50;9.23;;;7.73;;
82938;SDS011;72714;52.744;4.900;2023-10-19T02:26:17;8.50;;;7.60;;
82938;SDS011;72714;52.744;4.900;2023-10-19T02:28:45;8.82;;;7.65;;
82938;SDS011;72714;52.744;4.900;2023-10-19T02:31:11;9.00;;;7.85;;
82938;SDS011;72714;52.744;4.900;2023-10-19T02:33:41;8.63;;;7.70;;
82938;SDS011;72714;52.744;4.900;2023-10-19T02:36:11;9.75;;;8.60;;
82938;SDS011;72714;52.744;4.900;2023-10-19T02:38:41;10.13;;;8.32;;
82938;SDS011;72714;52.744;4.900;2023-10-19T02:41:13;10.40;;;9.23;;
82938;SDS011;72714;52.744;4.900;2023-10-19T02:43:46;9.98;;;8.15;;
82938;SDS011;72714;52.744;4.900;2023-10-19T02:46:26;10.07;;;8.30;;
82938;SDS011;72714;52.744;4.900;2023-10-19T02:48:52;9.77;;;8.75;;
82938;SDS011;72714;52.744;4.900;2023-10-19T02:51:17;10.03;;;8.93;;
82938;SDS011;72714;52.744;4.900;2023-10-19T02:53:44;10.70;;;9.60;;
82938;SDS011;72714;52.744;4.900;2023-10-19T02:56:12;11.77;;;10.10;;
82938;SDS011;72714;52.744;4.900;2023-10-19T02:58:41;11.98;;;10.75;;
82938;SDS011;72714;52.744;4.900;2023-10-19T03:01:16;11.93;;;10.17;;
82938;SDS011;72714;52.744;4.900;2023-10-19T03:03:52;11.32;;;10.13;;
82938;SDS011;72714;52.744;4.900;2023-10-19T03:06:22;11.77;;;10.57;;
82938;SDS011;72714;52.744;4.900;2023-10-19T03:08:49;11.88;;;10.60;;
82938;SDS011;72714;52.744;4.900;2023-10-19T03:11:25;13.05;;;11.75;;
82938;SDS011;72714;52.744;4.900;2023-10-19T03:13:52;12.45;;;11.20;;
82938;SDS011;72714;52.744;4.900;2023-10-19T03:16:22;12.43;;;11.13;;
82938;SDS011;72714;52.744;4.900;2023-10-19T03:18:49;13.73;;;12.32;;
82938;SDS011;72714;52.744;4.900;2023-10-19T03:21:18;14.82;;;13.27;;
82938;SDS011;72714;52.744;4.900;2023-10-19T03:23:44;15.80;;;14.20;;
82938;SDS011;72714;52.744;4.900;2023-10-19T03:26:10;13.73;;;12.33;;
82938;SDS011;72714;52.744;4.900;2023-10-19T03:28:54;15.68;;;13.98;;
82938;SDS011;72714;52.744;4.900;2023-10-19T03:31:26;14.80;;;13.30;;
82938;SDS011;72714;52.744;4.900;2023-10-19T03:33:52;16.53;;;14.83;;
82938;SDS011;72714;52.744;4.900;2023-10-19T03:36:24;15.43;;;13.82;;
82938;SDS011;72714;52.744;4.900;2023-10-19T03:38:51;16.17;;;14.57;;
82938;SDS011;72714;52.744;4.900;2023-10-19T03:41:19;16.75;;;15.02;;
82938;SDS011;72714;52.744;4.900;2023-10-19T03:43:47;17.58;;;15.77;;
82938;SDS011;72714;52.744;4.900;2023-10-19T03:46:14;17.98;;;16.15;;
82938;SDS011;72714;52.744;4.900;2023-10-19T03:48:47;19.33;;;17.27;;
82938;SDS011;72714;52.744;4.900;2023-10-19T03:51:12;18.35;;;16.42;;
82938;SDS011;72714;52.744;4.900;2023-10-19T03:53:39;18.42;;;16.52;;
82938;SDS011;72714;52.744;4.900;2023-10-19T03:56:09;20.92;;;18.73;;
82938;SDS011;72714;52.744;4.900;2023-10-19T03:58:36;19.50;;;17.50;;
82938;SDS011;72714;52.744;4.900;2023-10-19T04:01:03;19.65;;;17.63;;
82938;SDS011;72714;52.744;4.900;2023-10-19T04:03:30;18.95;;;16.90;;
82938;SDS011;72714;52.744;4.900;2023-10-19T04:05:56;19.85;;;17.83;;
82938;SDS011;72714;52.744;4.900;2023-10-19T04:08:25;20.07;;;17.97;;
82938;SDS011;72714;52.744;4.900;2023-10-19T04:10:52;21.30;;;19.10;;
82938;SDS011;72714;52.744;4.900;2023-10-19T04:13:44;19.52;;;17.42;;
82938;SDS011;72714;52.744;4.900;2023-10-19T04:16:10;20.50;;;18.40;;
82938;SDS011;72714;52.744;4.900;2023-10-19T04:18:35;21.83;;;19.53;;
82938;SDS011;72714;52.744;4.900;2023-10-19T04:21:08;21.38;;;19.08;;
82938;SDS011;72714;52.744;4.900;2023-10-19T04:23:33;21.40;;;19.13;;
82938;SDS011;72714;52.744;4.900;2023-10-19T04:26:00;21.50;;;19.20;;
82938;SDS011;72714;52.744;4.900;2023-10-19T04:28:30;22.05;;;19.10;;
82938;SDS011;72714;52.744;4.900;2023-10-19T04:31:03;21.40;;;19.13;;
82938;SDS011;72714;52.744;4.900;2023-10-19T04:33:29;20.07;;;18.00;;
82938;SDS011;72714;52.744;4.900;2023-10-19T04:35:55;21.48;;;18.38;;
82938;SDS011;72714;52.744;4.900;2023-10-19T04:38:22;21.90;;;19.27;;
82938;SDS011;72714;52.744;4.900;2023-10-19T04:40:48;20.95;;;18.30;;
82938;SDS011;72714;52.744;4.900;2023-10-19T04:43:14;21.87;;;19.30;;
82938;SDS011;72714;52.744;4.900;2023-10-19T04:45:40;23.38;;;20.17;;
82938;SDS011;72714;52.744;4.900;2023-10-19T04:48:06;20.48;;;18.30;;
82938;SDS011;72714;52.744;4.900;2023-10-19T04:50:31;20.77;;;18.63;;
82938;SDS011;72714;52.744;4.900;2023-10-19T04:52:57;22.47;;;20.07;;
82938;SDS011;72714;52.744;4.900;2023-10-19T04:55:22;22.50;;;19.47;;
82938;SDS011;72714;52.744;4.900;2023-10-19T04:57:48;21.58;;;19.38;;
82938;SDS011;72714;52.744;4.900;2023-10-19T05:00:14;21.02;;;18.50;;
82938;SDS011;72714;52.744;4.900;2023-10-19T05:02:41;20.10;;;17.70;;
82938;SDS011;72714;52.744;4.900;2023-10-19T05:05:06;19.50;;;17.38;;
82938;SDS011;72714;52.744;4.900;2023-10-19T05:07:32;20.00;;;17.85;;
82938;SDS011;72714;52.744;4.900;2023-10-19T05:09:58;21.13;;;18.33;;
82938;SDS011;72714;52.744;4.900;2023-10-19T05:12:24;19.83;;;17.33;;
82938;SDS011;72714;52.744;4.900;2023-10-19T05:14:50;20.43;;;17.80;;
82938;SDS011;72714;52.744;4.900;2023-10-19T05:17:15;19.80;;;16.90;;
82938;SDS011;72714;52.744;4.900;2023-10-19T05:19:41;19.58;;;16.40;;
82938;SDS011;72714;52.744;4.900;2023-10-19T05:22:07;19.17;;;16.48;;
82938;SDS011;72714;52.744;4.900;2023-10-19T05:24:34;19.00;;;16.48;;
82938;SDS011;72714;52.744;4.900;2023-10-19T05:27:00;17.38;;;15.38;;
82938;SDS011;72714;52.744;4.900;2023-10-19T05:29:26;19.47;;;15.90;;
82938;SDS011;72714;52.744;4.900;2023-10-19T05:31:52;16.57;;;14.47;;
82938;SDS011;72714;52.744;4.900;2023-10-19T05:34:23;17.20;;;15.38;;
82938;SDS011;72714;52.744;4.900;2023-10-19T05:36:49;17.13;;;14.82;;
82938;SDS011;72714;52.744;4.900;2023-10-19T05:39:15;18.77;;;15.27;;
82938;SDS011;72714;52.744;4.900;2023-10-19T05:41:41;14.98;;;13.38;;
82938;SDS011;72714;52.744;4.900;2023-10-19T05:44:07;15.32;;;13.70;;
82938;SDS011;72714;52.744;4.900;2023-10-19T05:46:33;16.15;;;13.80;;
82938;SDS011;72714;52.744;4.900;2023-10-19T05:48:58;15.53;;;13.40;;
82938;SDS011;72714;52.744;4.900;2023-10-19T05:51:24;17.05;;;13.60;;
82938;SDS011;72714;52.744;4.900;2023-10-19T05:53:50;16.83;;;13.10;;
82938;SDS011;72714;52.744;4.900;2023-10-19T05:56:16;15.35;;;12.65;;
82938;SDS011;72714;52.744;4.900;2023-10-19T05:58:42;14.60;;;12.10;;
82938;SDS011;72714;52.744;4.900;2023-10-19T06:01:08;13.57;;;11.37;;
82938;SDS011;72714;52.744;4.900;2023-10-19T06:03:34;13.20;;;11.43;;
82938;SDS011;72714;52.744;4.900;2023-10-19T06:05:59;12.43;;;10.00;;
82938;SDS011;72714;52.744;4.900;2023-10-19T06:08:25;11.33;;;9.53;;
82938;SDS011;72714;52.744;4.900;2023-10-19T06:10:52;12.93;;;9.82;;
82938;SDS011;72714;52.744;4.900;2023-10-19T06:13:18;11.70;;;9.50;;
82938;SDS011;72714;52.744;4.900;2023-10-19T06:15:45;11.83;;;8.83;;
82938;SDS011;72714;52.744;4.900;2023-10-19T06:18:10;10.57;;;7.40;;
82938;SDS011;72714;52.744;4.900;2023-10-19T06:20:36;9.57;;;6.87;;
82938;SDS011;72714;52.744;4.900;2023-10-19T06:23:03;12.43;;;7.40;;
82938;SDS011;72714;52.744;4.900;2023-10-19T06:25:33;11.90;;;7.20;;
82938;SDS011;72714;52.744;4.900;2023-10-19T06:28:01;9.27;;;6.28;;
82938;SDS011;72714;52.744;4.900;2023-10-19T06:30:29;10.52;;;6.05;;
82938;SDS011;72714;52.744;4.900;2023-10-19T06:32:55;10.30;;;5.80;;
82938;SDS011;72714;52.744;4.900;2023-10-19T06:35:24;9.38;;;5.63;;
82938;SDS011;72714;52.744;4.900;2023-10-19T06:37:50;8.93;;;5.40;;
82938;SDS011;72714;52.744;4.900;2023-10-19T06:40:16;9.17;;;5.27;;
82938;SDS011;72714;52.744;4.900;2023-10-19T06:42:42;8.07;;;5.33;;
82938;SDS011;72714;52.744;4.900;2023-10-19T06:45:08;7.97;;;4.90;;
82938;SDS011;72714;52.744;4.900;2023-10-19T06:47:37;7.90;;;4.50;;
82938;SDS011;72714;52.744;4.900;2023-10-19T06:50:04;7.80;;;4.50;;
82938;SDS011;72714;52.744;4.900;2023-10-19T06:52:33;10.00;;;4.90;;
82938;SDS011;72714;52.744;4.900;2023-10-19T06:55:01;9.87;;;4.27;;
82938;SDS011;72714;52.744;4.900;2023-10-19T06:57:31;9.70;;;4.15;;
82938;SDS011;72714;52.744;4.900;2023-10-19T06:59:58;8.50;;;3.90;;
82938;SDS011;72714;52.744;4.900;2023-10-19T07:02:24;6.43;;;3.10;;
82938;SDS011;72714;52.744;4.900;2023-10-19T07:04:51;6.75;;;3.70;;
82938;SDS011;72714;52.744;4.900;2023-10-19T07:07:17;7.50;;;3.30;;
82938;SDS011;72714;52.744;4.900;2023-10-19T07:09:43;9.20;;;3.40;;
82938;SDS011;72714;52.744;4.900;2023-10-19T07:12:08;6.85;;;3.20;;
82938;SDS011;72714;52.744;4.900;2023-10-19T07:14:34;6.53;;;3.10;;
82938;SDS011;72714;52.744;4.900;2023-10-19T07:16:59;7.53;;;3.20;;
82938;SDS011;72714;52.744;4.900;2023-10-19T07:19:25;9.63;;;3.40;;
82938;SDS011;72714;52.744;4.900;2023-10-19T07:21:51;8.32;;;3.17;;
82938;SDS011;72714;52.744;4.900;2023-10-19T07:24:23;6.28;;;3.05;;
82938;SDS011;72714;52.744;4.900;2023-10-19T07:26:49;6.60;;;3.30;;
82938;SDS011;72714;52.744;4.900;2023-10-19T07:29:21;8.50;;;3.47;;
82938;SDS011;72714;52.744;4.900;2023-10-19T07:31:47;7.05;;;3.40;;
82938;SDS011;72714;52.744;4.900;2023-10-19T07:34:13;6.72;;;3.15;;
82938;SDS011;72714;52.744;4.900;2023-10-19T07:36:41;9.48;;;4.07;;
82938;SDS011;72714;52.744;4.900;2023-10-19T07:39:08;8.30;;;3.75;;
82938;SDS011;72714;52.744;4.900;2023-10-19T07:41:39;8.02;;;3.60;;
82938;SDS011;72714;52.744;4.900;2023-10-19T07:44:05;7.97;;;3.13;;
82938;SDS011;72714;52.744;4.900;2023-10-19T07:46:31;7.22;;;3.60;;
82938;SDS011;72714;52.744;4.900;2023-10-19T07:48:56;6.50;;;3.30;;
82938;SDS011;72714;52.744;4.900;2023-10-19T07:51:24;6.75;;;3.00;;
82938;SDS011;72714;52.744;4.900;2023-10-19T07:53:50;7.27;;;3.40;;
82938;SDS011;72714;52.744;4.900;2023-10-19T07:56:16;6.90;;;3.33;;
82938;SDS011;72714;52.744;4.900;2023-10-19T07:58:42;9.02;;;3.58;;
82938;SDS011;72714;52.744;4.900;2023-10-19T08:01:08;7.18;;;2.90;;
82938;SDS011;72714;52.744;4.900;2023-10-19T08:03:33;7.75;;;3.40;;
82938;SDS011;72714;52.744;4.900;2023-10-19T08:06:00;8.40;;;3.20;;
82938;SDS011;72714;52.744;4.900;2023-10-19T08:08:25;6.43;;;3.03;;
82938;SDS011;72714;52.744;4.900;2023-10-19T08:10:58;9.88;;;3.10;;
82938;SDS011;72714;52.744;4.900;2023-10-19T08:13:24;8.38;;;2.92;;
82938;SDS011;72714;52.744;4.900;2023-10-19T08:15:51;6.93;;;2.78;;
82938;SDS011;72714;52.744;4.900;2023-10-19T08:18:16;6.93;;;2.80;;
82938;SDS011;72714;52.744;4.900;2023-10-19T08:20:43;6.37;;;2.67;;
82938;SDS011;72714;52.744;4.900;2023-10-19T08:23:11;7.80;;;2.90;;
82938;SDS011;72714;52.744;4.900;2023-10-19T08:25:38;5.50;;;2.75;;
82938;SDS011;72714;52.744;4.900;2023-10-19T08:28:04;8.57;;;2.80;;
82938;SDS011;72714;52.744;4.900;2023-10-19T08:30:31;6.47;;;2.60;;
82938;SDS011;72714;52.744;4.900;2023-10-19T08:32:58;8.30;;;2.88;;
82938;SDS011;72714;52.744;4.900;2023-10-19T08:35:24;7.43;;;2.80;;
82938;SDS011;72714;52.744;4.900;2023-10-19T08:37:50;7.90;;;2.70;;
82938;SDS011;72714;52.744;4.900;2023-10-19T08:40:16;7.78;;;2.90;;
82938;SDS011;72714;52.744;4.900;2023-10-19T08:42:43;6.80;;;2.60;;
82938;SDS011;72714;52.744;4.900;2023-10-19T08:45:10;6.72;;;2.47;;
82938;SDS011;72714;52.744;4.900;2023-10-19T08:47:51;7.60;;;3.20;;
82938;SDS011;72714;52.744;4.900;2023-10-19T08:50:29;6.28;;;2.70;;
82938;SDS011;72714;52.744;4.900;2023-10-19T08:52:56;7.63;;;2.90;;
82938;SDS011;72714;52.744;4.900;2023-10-19T08:55:22;6.60;;;2.50;;
82938;SDS011;72714;52.744;4.900;2023-10-19T08:57:49;7.75;;;2.97;;
82938;SDS011;72714;52.744;4.900;2023-10-19T09:00:15;8.93;;;3.00;;
82938;SDS011;72714;52.744;4.900;2023-10-19T09:02:47;6.80;;;2.80;;
82938;SDS011;72714;52.744;4.900;2023-10-19T09:05:13;7.88;;;2.80;;
82938;SDS011;72714;52.744;4.900;2023-10-19T09:07:47;6.85;;;2.72;;
82938;SDS011;72714;52.744;4.900;2023-10-19T09:10:23;8.90;;;3.00;;
82938;SDS011;72714;52.744;4.900;2023-10-19T09:12:58;6.07;;;2.73;;
82938;SDS011;72714;52.744;4.900;2023-10-19T09:15:26;7.75;;;2.70;;
82938;SDS011;72714;52.744;4.900;2023-10-19T09:17:53;7.13;;;2.72;;
82938;SDS011;72714;52.744;4.900;2023-10-19T09:20:20;6.88;;;2.92;;
82938;SDS011;72714;52.744;4.900;2023-10-19T09:22:55;8.85;;;3.10;;
82938;SDS011;72714;52.744;4.900;2023-10-19T09:25:23;6.07;;;2.83;;
82938;SDS011;72714;52.744;4.900;2023-10-19T09:27:48;6.50;;;2.80;;
82938;SDS011;72714;52.744;4.900;2023-10-19T09:30:15;7.60;;;2.88;;
82938;SDS011;72714;52.744;4.900;2023-10-19T09:32:46;7.78;;;2.97;;
82938;SDS011;72714;52.744;4.900;2023-10-19T09:35:13;9.68;;;3.33;;
82938;SDS011;72714;52.744;4.900;2023-10-19T09:37:43;7.32;;;2.80;;
82938;SDS011;72714;52.744;4.900;2023-10-19T09:40:09;6.40;;;2.80;;
82938;SDS011;72714;52.744;4.900;2023-10-19T09:42:39;6.72;;;2.78;;
82938;SDS011;72714;52.744;4.900;2023-10-19T09:45:11;6.72;;;2.92;;
82938;SDS011;72714;52.744;4.900;2023-10-19T09:47:38;8.00;;;2.90;;
82938;SDS011;72714;52.744;4.900;2023-10-19T09:50:07;8.15;;;2.90;;
82938;SDS011;72714;52.744;4.900;2023-10-19T09:52:33;8.73;;;3.10;;
82938;SDS011;72714;52.744;4.900;2023-10-19T09:57:27;8.43;;;2.90;;
82938;SDS011;72714;52.744;4.900;2023-10-19T09:59:59;7.20;;;2.70;;
82938;SDS011;72714;52.744;4.900;2023-10-19T10:02:38;7.10;;;2.63;;
82938;SDS011;72714;52.744;4.900;2023-10-19T10:05:04;9.48;;;3.03;;
82938;SDS011;72714;52.744;4.900;2023-10-19T10:07:29;6.87;;;2.80;;
82938;SDS011;72714;52.744;4.900;2023-10-19T10:09:55;7.15;;;2.90;;
82938;SDS011;72714;52.744;4.900;2023-10-19T10:12:22;7.40;;;3.00;;
82938;SDS011;72714;52.744;4.900;2023-10-19T10:14:54;8.73;;;3.03;;
82938;SDS011;72714;52.744;4.900;2023-10-19T10:17:36;7.10;;;2.70;;
82938;SDS011;72714;52.744;4.900;2023-10-19T10:22:43;7.13;;;2.95;;
82938;SDS011;72714;52.744;4.900;2023-10-19T10:25:28;6.72;;;2.90;;
82938;SDS011;72714;52.744;4.900;2023-10-19T10:27:54;8.05;;;2.70;;
82938;SDS011;72714;52.744;4.900;2023-10-19T10:30:20;8.60;;;2.92;;
82938;SDS011;72714;52.744;4.900;2023-10-19T10:32:50;7.90;;;3.23;;
82938;SDS011;72714;52.744;4.900;2023-10-19T10:38:19;6.22;;;2.60;;
82938;SDS011;72714;52.744;4.900;2023-10-19T10:40:51;7.73;;;2.87;;
82938;SDS011;72714;52.744;4.900;2023-10-19T10:43:18;7.90;;;2.72;;
82938;SDS011;72714;52.744;4.900;2023-10-19T10:45:44;6.80;;;2.78;;
82938;SDS011;72714;52.744;4.900;2023-10-19T10:48:13;8.27;;;2.80;;
82938;SDS011;72714;52.744;4.900;2023-10-19T10:50:42;7.75;;;3.00;;
82938;SDS011;72714;52.744;4.900;2023-10-19T10:53:10;7.95;;;2.97;;
82938;SDS011;72714;52.744;4.900;2023-10-19T10:55:36;10.80;;;3.10;;
82938;SDS011;72714;52.744;4.900;2023-10-19T10:58:02;8.83;;;3.10;;
82938;SDS011;72714;52.744;4.900;2023-10-19T11:00:28;7.57;;;2.83;;
82938;SDS011;72714;52.744;4.900;2023-10-19T11:03:01;9.27;;;3.17;;
82938;SDS011;72714;52.744;4.900;2023-10-19T11:05:29;8.18;;;3.13;;
82938;SDS011;72714;52.744;4.900;2023-10-19T11:08:13;8.80;;;3.10;;
82938;SDS011;72714;52.744;4.900;2023-10-19T11:10:40;10.07;;;3.43;;
82938;SDS011;72714;52.744;4.900;2023-10-19T11:13:08;11.00;;;3.30;;
82938;SDS011;72714;52.744;4.900;2023-10-19T11:15:36;8.50;;;3.25;;
82938;SDS011;72714;52.744;4.900;2023-10-19T11:18:02;8.68;;;3.25;;
82938;SDS011;72714;52.744;4.900;2023-10-19T11:20:28;8.38;;;3.38;;
82938;SDS011;72714;52.744;4.900;2023-10-19T11:22:54;9.00;;;3.38;;
82938;SDS011;72714;52.744;4.900;2023-10-19T11:25:24;8.95;;;3.30;;
82938;SDS011;72714;52.744;4.900;2023-10-19T11:27:54;8.55;;;3.30;;
82938;SDS011;72714;52.744;4.900;2023-10-19T11:30:30;9.43;;;3.20;;
82938;SDS011;72714;52.744;4.900;2023-10-19T11:32:56;9.93;;;3.55;;
82938;SDS011;72714;52.744;4.900;2023-10-19T11:35:26;10.20;;;3.60;;
82938;SDS011;72714;52.744;4.900;2023-10-19T11:37:53;8.50;;;3.00;;
82938;SDS011;72714;52.744;4.900;2023-10-19T11:40:20;9.77;;;3.40;;
82938;SDS011;72714;52.744;4.900;2023-10-19T11:42:47;9.13;;;3.20;;
82938;SDS011;72714;52.744;4.900;2023-10-19T11:45:13;9.07;;;3.50;;
82938;SDS011;72714;52.744;4.900;2023-10-19T11:47:38;9.37;;;3.20;;
82938;SDS011;72714;52.744;4.900;2023-10-19T11:50:04;8.85;;;3.22;;
82938;SDS011;72714;52.744;4.900;2023-10-19T11:52:31;11.80;;;3.60;;
82938;SDS011;72714;52.744;4.900;2023-10-19T11:54:56;10.07;;;3.38;;
82938;SDS011;72714;52.744;4.900;2023-10-19T11:57:23;11.90;;;3.57;;
82938;SDS011;72714;52.744;4.900;2023-10-19T11:59:49;10.75;;;3.20;;
82938;SDS011;72714;52.744;4.900;2023-10-19T12:02:20;13.00;;;3.55;;
82938;SDS011;72714;52.744;4.900;2023-10-19T12:04:46;11.38;;;4.03;;
82938;SDS011;72714;52.744;4.900;2023-10-19T12:07:12;10.60;;;3.23;;
82938;SDS011;72714;52.744;4.900;2023-10-19T12:09:37;12.03;;;3.63;;
82938;SDS011;72714;52.744;4.900;2023-10-19T12:12:06;9.15;;;3.45;;
82938;SDS011;72714;52.744;4.900;2023-10-19T12:14:32;10.47;;;3.63;;
82938;SDS011;72714;52.744;4.900;2023-10-19T12:16:59;11.57;;;3.92;;
82938;SDS011;72714;52.744;4.900;2023-10-19T12:19:27;11.13;;;4.27;;
82938;SDS011;72714;52.744;4.900;2023-10-19T12:21:55;11.93;;;4.27;;
82938;SDS011;72714;52.744;4.900;2023-10-19T12:24:20;11.27;;;4.00;;
82938;SDS011;72714;52.744;4.900;2023-10-19T12:26:46;11.27;;;4.00;;
82938;SDS011;72714;52.744;4.900;2023-10-19T12:29:12;11.33;;;4.03;;
82938;SDS011;72714;52.744;4.900;2023-10-19T12:31:39;10.18;;;4.10;;
82938;SDS011;72714;52.744;4.900;2023-10-19T12:34:06;11.55;;;4.35;;
82938;SDS011;72714;52.744;4.900;2023-10-19T12:36:32;12.38;;;4.25;;
82938;SDS011;72714;52.744;4.900;2023-10-19T12:39:00;10.43;;;4.25;;
82938;SDS011;72714;52.744;4.900;2023-10-19T12:41:25;12.23;;;4.10;;
82938;SDS011;72714;52.744;4.900;2023-10-19T12:43:52;10.18;;;4.35;;
82938;SDS011;72714;52.744;4.900;2023-10-19T12:46:22;11.27;;;4.38;;
82938;SDS011;72714;52.744;4.900;2023-10-19T12:48:50;14.75;;;5.05;;
82938;SDS011;72714;52.744;4.900;2023-10-19T12:51:22;12.75;;;4.80;;
82938;SDS011;72714;52.744;4.900;2023-10-19T12:53:49;11.10;;;4.30;;
82938;SDS011;72714;52.744;4.900;2023-10-19T12:56:16;14.63;;;4.97;;
82938;SDS011;72714;52.744;4.900;2023-10-19T12:58:43;11.60;;;4.70;;
82938;SDS011;72714;52.744;4.900;2023-10-19T13:01:08;12.90;;;4.80;;
82938;SDS011;72714;52.744;4.900;2023-10-19T13:03:41;11.35;;;4.63;;
82938;SDS011;72714;52.744;4.900;2023-10-19T13:06:10;11.87;;;4.53;;
82938;SDS011;72714;52.744;4.900;2023-10-19T13:08:39;12.98;;;4.65;;
82938;SDS011;72714;52.744;4.900;2023-10-19T13:11:07;9.52;;;4.45;;
82938;SDS011;72714;52.744;4.900;2023-10-19T13:13:34;10.70;;;4.13;;
82938;SDS011;72714;52.744;4.900;2023-10-19T13:16:04;12.10;;;4.85;;
82938;SDS011;72714;52.744;4.900;2023-10-19T13:18:31;11.70;;;4.38;;
82938;SDS011;72714;52.744;4.900;2023-10-19T13:20:59;12.70;;;4.60;;
82938;SDS011;72714;52.744;4.900;2023-10-19T13:23:30;11.77;;;4.72;;
82938;SDS011;72714;52.744;4.900;2023-10-19T13:25:58;12.60;;;4.53;;
82938;SDS011;72714;52.744;4.900;2023-10-19T13:28:41;13.45;;;5.05;;
82938;SDS011;72714;52.744;4.900;2023-10-19T13:31:07;11.65;;;4.95;;
82938;SDS011;72714;52.744;4.900;2023-10-19T13:33:39;13.63;;;5.10;;
82938;SDS011;72714;52.744;4.900;2023-10-19T13:36:05;11.68;;;4.80;;
82938;SDS011;72714;52.744;4.900;2023-10-19T13:38:31;12.48;;;4.90;;
82938;SDS011;72714;52.744;4.900;2023-10-19T13:40:57;11.90;;;4.85;;
82938;SDS011;72714;52.744;4.900;2023-10-19T13:43:23;11.33;;;5.13;;
82938;SDS011;72714;52.744;4.900;2023-10-19T13:45:49;15.50;;;5.97;;
82938;SDS011;72714;52.744;4.900;2023-10-19T13:48:18;12.80;;;5.00;;
82938;SDS011;72714;52.744;4.900;2023-10-19T13:50:45;13.10;;;5.47;;
82938;SDS011;72714;52.744;4.900;2023-10-19T13:53:13;11.88;;;5.32;;
82938;SDS011;72714;52.744;4.900;2023-10-19T13:55:42;11.48;;;5.10;;
82938;SDS011;72714;52.744;4.900;2023-10-19T13:58:08;12.40;;;5.83;;
82938;SDS011;72714;52.744;4.900;2023-10-19T14:00:34;15.33;;;5.37;;
82938;SDS011;72714;52.744;4.900;2023-10-19T14:02:59;12.70;;;5.67;;
82938;SDS011;72714;52.744;4.900;2023-10-19T14:05:26;14.60;;;5.22;;
82938;SDS011;72714;52.744;4.900;2023-10-19T14:07:52;11.48;;;5.38;;
82938;SDS011;72714;52.744;4.900;2023-10-19T14:10:18;12.65;;;5.63;;
82938;SDS011;72714;52.744;4.900;2023-10-19T14:12:47;13.10;;;6.15;;
82938;SDS011;72714;52.744;4.900;2023-10-19T14:15:16;13.85;;;5.20;;
82938;SDS011;72714;52.744;4.900;2023-10-19T14:17:43;14.27;;;5.57;;
82938;SDS011;72714;52.744;4.900;2023-10-19T14:20:11;14.27;;;5.10;;
82938;SDS011;72714;52.744;4.900;2023-10-19T14:22:44;13.07;;;5.30;;
82938;SDS011;72714;52.744;4.900;2023-10-19T14:25:11;13.38;;;5.65;;
82938;SDS011;72714;52.744;4.900;2023-10-19T14:27:41;12.73;;;5.00;;
82938;SDS011;72714;52.744;4.900;2023-10-19T14:30:08;13.57;;;5.75;;
82938;SDS011;72714;52.744;4.900;2023-10-19T14:32:41;11.63;;;4.68;;
82938;SDS011;72714;52.744;4.900;2023-10-19T14:35:10;12.10;;;5.20;;
82938;SDS011;72714;52.744;4.900;2023-10-19T14:37:38;13.48;;;5.72;;
82938;SDS011;72714;52.744;4.900;2023-10-19T14:40:15;13.30;;;5.10;;
82938;SDS011;72714;52.744;4.900;2023-10-19T14:42:42;10.30;;;4.72;;
82938;SDS011;72714;52.744;4.900;2023-10-19T14:45:08;14.13;;;5.20;;
82938;SDS011;72714;52.744;4.900;2023-10-19T14:47:36;12.52;;;5.50;;
82938;SDS011;72714;52.744;4.900;2023-10-19T14:50:03;13.20;;;5.00;;
82938;SDS011;72714;52.744;4.900;2023-10-19T14:52:29;11.43;;;4.57;;